Weather observations for the past three days for
Torrington Municipal Airport
Imperial (Metric)
Date Time (mdt) Wind (mph) Vis. (mi.) Weather Sky Cond. Temperature (ºF) Relative Humidity Wind Chill (°F) Heat Index (°F) Pressure Precipitation (in)
Air Dwpt 6 hour altimeter (in) sea level (mb) 1 hr 3 hr 6 hr
Max. Min.
02 12:53 W 7 G 17 10.00 Fair CLR 70 14 11% 30.05 1015.7
02 11:53 W 12 10.00 Fair CLR 68 19.9 68 28.9 16% 30.09 1016.7
02 10:53 W 5 10.00 Fair CLR 61 27 27% 30.11 1018.1
02 09:53 SW 3 10.00 Fair CLR 52 27 38% 30.13 1019.1
02 08:53 Calm 8.00 Fair CLR 45 26.1 48% 30.14 1019.9
02 07:53 Calm 10.00 Fair CLR 39 26.1 60% 30.14 1019.9
02 06:53 Calm 10.00 Fair CLR 33.1 25 72% 30.15 1020.1
02 05:53 W 3 10.00 Fair CLR 30.9 24.1 41 30 76% 30.15 1020.2
02 04:53 E 8 10.00 Fair CLR 30 23 75% 23 30.15 1020.7
02 03:53 E 5 10.00 Fair CLR 32 24.1 73% 28 30.16 1020.6
02 02:53 NE 5 10.00 Fair CLR 32 24.1 73% 28 30.16 1020.5
02 01:53 Calm 10.00 Fair CLR 39 25 57% 30.18 1020.5
02 00:53 NE 5 10.00 Fair CLR 37.9 25 60% 35 30.18 1021.1
01 23:53 E 5 10.00 Fair CLR 41 25 64 41 53% 38 30.17 1020.5
01 22:53 E 9 10.00 Fair CLR 43 25 49% 38 30.15 1019.9
01 21:53 E 10 10.00 Fair CLR 46.9 24.1 41% 43 30.14 1019.6
01 20:53 NE 10 10.00 Fair CLR 50 23 35% 46 30.1 1018.5
01 19:53 NE 9 10.00 Overcast OVC100 57.9 19.9 23% 30.07 1016.9
01 18:53 NW 12 10.00 Overcast OVC110 62.1 19.9 20% 30.05 1016.9
01 17:53 NW 15 G 26 10.00 Mostly Cloudy BKN110 64 19 66 57.9 18% 30.04 1016.8
01 16:53 NW 13 G 25 10.00 A Few Clouds FEW120 62.1 18 18% 30.05 1016.8
01 15:53 N 13 G 26 10.00 Partly Cloudy SCT110 63 18 17% 30.05 1016.7
01 14:53 NW 14 G 29 10.00 Mostly Cloudy BKN100 64.9 19 17% 30.06 1016.8
01 13:53 N 15 G 28 10.00 A Few Clouds FEW095 63 18 17% 30.08 1017.9
01 12:53 NW 15 G 25 10.00 Fair CLR 60.1 17.1 19% 30.1 1018.3
01 11:53 N 15 G 29 10.00 A Few Clouds FEW085 57.9 17.1 59 28.9 20% 30.11 1018.8
01 10:53 N 14 G 25 10.00 Fair CLR 57 17.1 21% 30.12 1018.6
01 09:53 N 10 10.00 Fair CLR 53.1 23 31% 30.12 1018.7
01 08:53 W 9 10.00 Fair CLR 48 25 41% 44 30.13 1019.5
01 07:53 NW 10 10.00 Fair CLR 42.1 24.1 49% 37 30.13 1019.6
01 06:53 W 3 10.00 Fair CLR 32 23 69% 30.12 1020.0
01 05:53 W 5 10.00 Fair CLR 28.9 21.9 41 28.9 75% 25 30.11 1019.9
01 04:53 NW 5 10.00 Fair CLR 32 21.9 66% 28 30.11 1019.6
01 03:53 W 6 10.00 A Few Clouds FEW085 33.1 21.9 64% 28 30.11 1019.5
01 02:53 NW 7 10.00 Overcast OVC085 35.1 21 57% 30 30.11 1019.5
01 01:53 NW 6 10.00 Fair CLR 32 21 64% 27 30.12 1020.0
01 00:53 NW 6 10.00 Fair CLR 37 21.9 54% 33 30.12 1019.9
30 23:53 Calm 10.00 Fair CLR 39.9 21 55.9 37.9 47% 30.13 1019.8
30 22:53 Calm 10.00 A Few Clouds FEW090 45 18 34% 30.12 1019.3
30 21:53 NW 3 10.00 Fair CLR 46 19 34% 30.12 1019.4
30 20:53 N 5 10.00 Mostly Cloudy BKN100 48 19 32% 47 30.11 1018.9
30 19:53 N 9 10.00 Overcast OVC100 52 18 26% 30.09 1018.2
30 18:53 N 6 10.00 Mostly Cloudy BKN095 55 17.1 22% 30.07 1017.8
30 17:53 NW 12 G 18 10.00 Mostly Cloudy BKN095 55.9 16 57.9 51.1 21% 30.08 1017.8
30 16:53 NW 9 10.00 Mostly Cloudy BKN090 57 16 20% 30.08 1017.6
30 15:53 N 13 G 23 10.00 Partly Cloudy SCT090 55.9 16 21% 30.09 1018.0
30 14:53 Vrbl 6 G 25 10.00 Mostly Cloudy BKN085 55 16 21% 30.11 1018.9
30 13:53 Calm 10.00 Partly Cloudy SCT085 55 15.1 21% 30.12 1019.1
30 12:53 Vrbl 7 G 18 10.00 A Few Clouds FEW100 53.1 15.1 22% 30.13 1019.4
30 11:53 N 8 10.00 Partly Cloudy SCT095 52 18 52 37.9 26% 30.15 1020.3
30 10:53 Calm 10.00 Mostly Cloudy BKN090 50 19 29% 30.17 1020.8
30 09:53 Vrbl 5 10.00 Fair CLR 48 26.1 42% 47 30.17 1021.1
30 08:53 W 5 10.00 Mostly Cloudy SCT080 BKN120 45 27 49% 43 30.19 1021.6
30 07:53 NW 3 10.00 A Few Clouds FEW120 41 24.1 51% 30.19 1021.9
30 06:53 N 6 10.00 Overcast BKN080 OVC090 39 25 57% 35 30.18 1021.3
30 05:53 N 7 10.00 Overcast BKN080 OVC090 37.9 28 45 37.9 68% 33 30.17 1021.0
30 04:53 N 7 10.00 Overcast BKN065 OVC080 39.9 30.9 70% 36 30.17 1020.5
30 03:53 Calm 10.00 Overcast OVC080 39.9 28.9 65% 30.17 1020.6
30 02:53 NW 3 10.00 A Few Clouds FEW080 39 28.9 67% 30.16 1020.8
30 01:53 N 7 10.00 Fair CLR 41 30 65% 37 30.17 1020.4
30 00:53 W 7 10.00 Mostly Cloudy BKN090 44.1 28.9 55% 41 30.17 1020.5
29 23:53 W 5 10.00 Overcast OVC100 44.1 28.9 57.9 44.1 55% 42 30.17 1020.5
29 22:53 NE 6 10.00 Fair CLR 45 28 52% 42 30.15 1020.2
29 21:53 N 13 10.00 Fair CLR 46.9 26.1 44% 42 30.14 1019.9
29 20:53 N 15 10.00 Fair CLR 50 26.1 39% 45 30.12 1019.5
29 19:53 N 12 10.00 Fair CLR 53.1 19 26% 30.09 1018.8
29 18:53 N 12 G 22 10.00 Mostly Cloudy BKN100 57 16 20% 30.06 1018.0
29 17:53 N 15 10.00 Mostly Cloudy BKN100 57 17.1 61 55 21% 30.06 1017.8
29 16:53 NW 17 G 26 10.00 Mostly Cloudy BKN100 59 18 20% 30.05 1017.5
29 15:53 N 12 G 28 10.00 Fair CLR 59 17.1 19% 30.05 1017.3
29 14:53 W 18 G 25 10.00 Partly Cloudy SCT075 SCT100 57 21.9 26% 30.07 1018.0
29 13:53 NW 13 G 24 10.00 Mostly Cloudy SCT070 BKN100 57.9 23 26% 30.07 1017.6
Date Time (mdt) Wind (mph) Vis. (mi.) Weather Sky Cond. Air Dwpt Max. Min. Relative Humidity Wind Chill (°F) Heat Index (°F) altimeter (in) sea level (mb) 1 hr 3 hr 6 hr
6 hour
Temperature (ºF) Pressure Precipitation (in)